createdAt,value
2023-04-17T00:00:37.815Z,25.63
2023-04-17T00:10:39.924Z,27.65
2023-04-17T00:20:41.982Z,28.73
2023-04-17T00:30:44.137Z,29.63
2023-04-17T00:40:46.472Z,29.45
2023-04-17T00:50:50.153Z,27.27
2023-04-17T01:00:52.314Z,24.80
2023-04-17T01:10:54.611Z,26.70
2023-04-17T01:20:56.840Z,25.63
2023-04-17T01:30:59.113Z,26.33
2023-04-17T01:41:09.530Z,23.60
2023-04-17T01:51:11.764Z,28.07
2023-04-17T02:01:14.158Z,25.48
2023-04-17T02:11:16.353Z,29.30
2023-04-17T02:21:18.698Z,24.50
2023-04-17T02:31:20.839Z,24.90
2023-04-17T02:41:22.988Z,24.03
2023-04-17T02:51:26.532Z,25.27
2023-04-17T03:01:29.850Z,23.73
2023-04-17T03:11:32.114Z,25.27
2023-04-17T03:21:34.369Z,28.20
2023-04-17T03:31:37.506Z,28.20
2023-04-17T03:41:40.018Z,26.33
2023-04-17T03:51:43.094Z,28.97
2023-04-17T04:01:54.100Z,29.53
2023-04-17T04:11:58.429Z,29.83
2023-04-17T04:22:01.523Z,31.45
2023-04-17T04:32:13.530Z,34.37
2023-04-17T04:42:22.392Z,28.07
2023-04-17T04:52:39.868Z,30.17
2023-04-17T05:02:51.442Z,28.97
2023-04-17T05:12:58.901Z,29.20
2023-04-17T05:23:01.916Z,31.60
2023-04-17T05:33:04.305Z,26.80
2023-04-17T05:43:17.433Z,29.10
2023-04-17T05:53:20.665Z,28.47
2023-04-17T06:03:30.636Z,24.60
2023-04-17T06:13:42.950Z,26.27
2023-04-17T06:23:45.479Z,28.57
2023-04-17T06:33:49.854Z,25.33
2023-04-17T06:43:53.928Z,28.50
2023-04-17T06:53:56.065Z,24.70
2023-04-17T07:03:58.255Z,29.87
2023-04-17T07:14:00.399Z,35.80
2023-04-17T07:24:02.514Z,28.27
2023-04-17T07:34:05.159Z,29.43
2023-04-17T07:44:07.209Z,25.17
2023-04-17T07:54:09.374Z,25.40
2023-04-17T08:04:11.665Z,21.50
2023-04-17T08:14:15.460Z,25.87
2023-04-17T08:24:19.754Z,21.80
2023-04-17T08:34:22.268Z,21.00
2023-04-17T08:44:24.318Z,18.83
2023-04-17T08:54:27.514Z,16.73
2023-04-17T09:04:37.112Z,16.70
2023-04-17T09:14:39.490Z,15.10
2023-04-17T09:24:42.925Z,17.02
2023-04-17T09:34:45.081Z,14.37
2023-04-17T09:44:48.466Z,16.42
2023-04-17T09:54:53.620Z,11.17
2023-04-17T10:04:55.838Z,12.02
2023-04-17T10:14:57.929Z,12.40
2023-04-17T10:25:15.631Z,12.55
2023-04-17T10:35:17.833Z,8.48
2023-04-17T10:45:20.102Z,9.93
2023-04-17T10:55:23.866Z,8.07
2023-04-17T11:05:26.030Z,8.95
2023-04-17T11:15:29.242Z,9.45
2023-04-17T11:25:33.968Z,7.83
2023-04-17T11:35:38.951Z,6.97
2023-04-17T11:45:43.080Z,7.18
2023-04-17T11:55:45.779Z,10.02
2023-04-17T12:05:58.912Z,7.68
2023-04-17T12:16:01.111Z,16.05
2023-04-17T12:26:03.260Z,9.75
2023-04-17T12:36:06.445Z,11.45
2023-04-17T12:46:08.581Z,7.88
2023-04-17T12:56:10.799Z,9.57
2023-04-17T13:06:13.580Z,9.07
2023-04-17T13:16:15.725Z,8.10
2023-04-17T13:26:18.145Z,7.85
2023-04-17T13:36:20.196Z,7.50
2023-04-17T13:46:22.311Z,9.90
2023-04-17T13:56:25.332Z,10.02
2023-04-17T14:06:31.952Z,9.38
2023-04-17T14:16:34.128Z,10.40
2023-04-17T14:26:37.519Z,7.68
2023-04-17T14:36:39.696Z,9.40
2023-04-17T14:46:41.929Z,12.50
2023-04-17T14:56:44.175Z,10.73
2023-04-17T15:06:46.377Z,6.45
2023-04-17T15:16:48.540Z,7.43
2023-04-17T15:26:51.245Z,7.45
2023-04-17T15:36:53.770Z,7.80
2023-04-17T15:46:56.077Z,7.47
2023-04-17T15:56:58.226Z,9.23
2023-04-17T16:07:00.358Z,8.48
2023-04-17T16:17:03.143Z,7.18
2023-04-17T16:27:06.386Z,5.65
2023-04-17T16:37:08.512Z,9.05
2023-04-17T16:47:13.928Z,8.50
2023-04-17T16:57:16.531Z,8.50
2023-04-17T17:07:18.733Z,9.52
2023-04-17T17:17:20.846Z,9.25
2023-04-17T17:27:24.007Z,11.13
2023-04-17T17:37:26.868Z,8.07
2023-04-17T17:47:29.090Z,10.07
2023-04-17T17:57:45.670Z,12.60
2023-04-17T18:07:50.559Z,8.85
2023-04-17T18:17:52.786Z,11.88
2023-04-17T18:27:54.943Z,7.67
2023-04-17T18:37:56.979Z,12.73
2023-04-17T18:47:59.162Z,6.97
2023-04-17T18:58:01.241Z,14.88
2023-04-17T19:08:03.476Z,8.37
2023-04-17T19:18:07.644Z,11.23
2023-04-17T19:28:10.859Z,10.77
2023-04-17T19:38:14.369Z,12.23
2023-04-17T19:48:18.431Z,9.10
2023-04-17T19:58:20.582Z,8.25
2023-04-17T20:08:22.808Z,12.02
2023-04-17T20:18:25.635Z,9.40
2023-04-17T20:28:29.002Z,10.18
2023-04-17T20:38:31.106Z,11.43
2023-04-17T20:48:33.243Z,10.10
2023-04-17T20:58:36.346Z,8.52
2023-04-17T21:08:38.522Z,8.37
2023-04-17T21:18:40.660Z,7.87
2023-04-17T21:28:43.011Z,9.80
2023-04-17T21:38:45.644Z,8.02
2023-04-17T21:48:47.721Z,10.03
2023-04-17T21:58:51.629Z,9.20
2023-04-17T22:08:53.736Z,12.43
2023-04-17T22:18:55.955Z,6.87
2023-04-17T22:28:58.110Z,7.20
2023-04-17T22:39:01.278Z,6.30
2023-04-17T22:49:05.997Z,10.13
2023-04-17T22:59:08.091Z,8.73
2023-04-17T23:09:10.282Z,9.23
2023-04-17T23:19:12.413Z,8.30
2023-04-17T23:29:14.534Z,9.13
2023-04-17T23:39:16.629Z,8.10
2023-04-17T23:49:18.700Z,8.57
2023-04-17T23:59:20.893Z,7.93
